Time;durP1;ratioP1;P1;durP2;ratioP2;P2;SDS_P1;SDS_P2;PMS_P1;PMS_P2;Temp;Humidity;BMP_temperature;BMP_pressure;BME280_temperature;BME280_humidity;BME280_pressure;Samples;Min_cycle;Max_cycle;Signal;HPM_P1;HPM_P2
2023/05/05 00:00:52;;;;;;;5.23;3.90;;;;;;;;;;5026936;28;20259;-78
2023/05/05 00:03:22;;;;;;;4.47;4.03;;;;;;;;;;5013203;28;20262;-78
2023/05/05 00:05:49;;;;;;;4.50;3.93;;;;;;;;;;5016818;28;20178;-78
2023/05/05 00:08:15;;;;;;;4.17;3.77;;;;;;;;;;5019358;28;20683;-78
2023/05/05 00:10:44;;;;;;;4.50;4.10;;;;;;;;;;5023073;28;20233;-78
2023/05/05 00:13:10;;;;;;;3.97;3.57;;;;;;;;;;5018805;28;20198;-78
2023/05/05 00:15:37;;;;;;;4.23;3.60;;;;;;;;;;5025209;28;20228;-78
2023/05/05 00:18:04;;;;;;;6.63;4.17;;;;;;;;;;5024984;28;20277;-78
2023/05/05 00:20:30;;;;;;;4.40;4.00;;;;;;;;;;5013020;28;20208;-78
2023/05/05 00:22:57;;;;;;;4.87;4.20;;;;;;;;;;5030167;28;20186;-78
2023/05/05 00:25:23;;;;;;;4.30;3.90;;;;;;;;;;5033229;28;20268;-78
2023/05/05 00:27:49;;;;;;;4.30;3.90;;;;;;;;;;5032197;28;20194;-77
2023/05/05 00:30:17;;;;;;;4.13;3.73;;;;;;;;;;5029723;28;20643;-78
2023/05/05 00:32:43;;;;;;;4.73;4.33;;;;;;;;;;5011104;28;20183;-78
2023/05/05 00:35:10;;;;;;;6.00;3.93;;;;;;;;;;5022167;28;20553;-78
2023/05/05 00:37:36;;;;;;;5.63;4.30;;;;;;;;;;5009558;28;21143;-78
2023/05/05 00:40:02;;;;;;;4.40;3.97;;;;;;;;;;5022521;28;20897;-78
2023/05/05 00:42:37;;;;;;;6.13;4.27;;;;;;;;;;5025797;28;20540;-78
2023/05/05 00:45:03;;;;;;;4.77;4.37;;;;;;;;;;5014768;28;20206;-79
2023/05/05 00:47:29;;;;;;;6.40;5.03;;;;;;;;;;5025297;28;20293;-78
2023/05/05 00:49:56;;;;;;;6.77;4.47;;;;;;;;;;5017302;28;20181;-78
2023/05/05 00:52:22;;;;;;;5.83;5.33;;;;;;;;;;5032549;28;20182;-78
2023/05/05 00:54:49;;;;;;;5.87;4.60;;;;;;;;;;5026213;28;20218;-78
2023/05/05 00:57:15;;;;;;;6.87;5.20;;;;;;;;;;5024691;28;20285;-78
2023/05/05 00:59:41;;;;;;;7.30;5.70;;;;;;;;;;5030477;28;20216;-78
2023/05/05 01:02:09;;;;;;;5.23;4.77;;;;;;;;;;5029904;28;20250;-78
2023/05/05 01:04:35;;;;;;;6.23;4.87;;;;;;;;;;5024289;28;20210;-78
2023/05/05 01:07:07;;;;;;;5.53;5.03;;;;;;;;;;5021528;28;20282;-77
2023/05/05 01:09:46;;;;;;;5.77;5.00;;;;;;;;;;5017512;28;20167;-78
2023/05/05 01:12:24;;;;;;;5.57;4.67;;;;;;;;;;5023716;28;20182;-78
2023/05/05 01:15:00;;;;;;;6.80;4.80;;;;;;;;;;5015719;28;20262;-79
2023/05/05 01:17:32;;;;;;;8.17;6.40;;;;;;;;;;5013197;28;20234;-78
2023/05/05 01:20:04;;;;;;;6.27;5.47;;;;;;;;;;5026772;28;20264;-78
2023/05/05 01:22:51;;;;;;;5.93;5.30;;;;;;;;;;5006657;28;20742;-78
2023/05/05 01:25:20;;;;;;;7.03;5.50;;;;;;;;;;5025973;28;20654;-78
2023/05/05 01:27:58;;;;;;;7.07;6.13;;;;;;;;;;5028947;28;20206;-77
2023/05/05 01:30:24;;;;;;;7.70;6.17;;;;;;;;;;5030739;28;20209;-78
2023/05/05 01:32:53;;;;;;;6.47;5.77;;;;;;;;;;5029629;28;20225;-78
2023/05/05 01:35:49;;;;;;;6.33;5.33;;;;;;;;;;5031120;28;20209;-78
2023/05/05 01:38:28;;;;;;;6.97;6.27;;;;;;;;;;5021543;28;20709;-78
2023/05/05 01:41:10;;;;;;;6.70;6.00;;;;;;;;;;5026331;28;20185;-78
2023/05/05 01:43:37;;;;;;;7.33;5.70;;;;;;;;;;5018725;28;20225;-78
2023/05/05 01:46:04;;;;;;;6.10;5.50;;;;;;;;;;5013220;28;20191;-78
2023/05/05 01:48:32;;;;;;;8.47;5.43;;;;;;;;;;5025255;28;20199;-78
2023/05/05 01:50:59;;;;;;;5.60;5.10;;;;;;;;;;5028944;28;20206;-78
2023/05/05 01:53:26;;;;;;;5.60;5.10;;;;;;;;;;5014326;28;20274;-78
2023/05/05 01:55:53;;;;;;;5.27;4.60;;;;;;;;;;5017279;28;20577;-78
2023/05/05 01:58:21;;;;;;;5.53;4.67;;;;;;;;;;5022803;28;20230;-78
2023/05/05 02:00:48;;;;;;;6.10;4.87;;;;;;;;;;5011760;28;20265;-78
2023/05/05 02:03:15;;;;;;;7.17;5.20;;;;;;;;;;5012961;28;20241;-78
2023/05/05 02:05:42;;;;;;;5.30;4.80;;;;;;;;;;5009382;28;20179;-78
2023/05/05 02:08:10;;;;;;;5.57;4.83;;;;;;;;;;5026422;28;20198;-78
2023/05/05 02:10:39;;;;;;;5.90;5.20;;;;;;;;;;5030810;28;20174;-78
2023/05/05 02:13:06;;;;;;;6.53;5.00;;;;;;;;;;5030944;28;20213;-78
2023/05/05 02:15:33;;;;;;;5.23;4.73;;;;;;;;;;5030262;28;20174;-78
2023/05/05 02:18:00;;;;;;;7.20;5.03;;;;;;;;;;5015231;28;20210;-78
2023/05/05 02:20:27;;;;;;;6.13;5.53;;;;;;;;;;5010158;28;20575;-78
2023/05/05 02:22:53;;;;;;;5.87;5.10;;;;;;;;;;5017469;28;20684;-77
2023/05/05 02:25:22;;;;;;;5.47;4.97;;;;;;;;;;5031331;28;20329;-78
2023/05/05 02:27:49;;;;;;;5.97;4.57;;;;;;;;;;5017555;28;20333;-78
2023/05/05 02:30:17;;;;;;;5.70;5.10;;;;;;;;;;5011593;28;20257;-78
2023/05/05 02:32:45;;;;;;;6.43;5.60;;;;;;;;;;5009766;28;20190;-78
2023/05/05 02:35:18;;;;;;;8.70;5.47;;;;;;;;;;5010420;28;20191;-78
2023/05/05 02:37:58;;;;;;;5.83;4.90;;;;;;;;;;5023543;28;20217;-78
2023/05/05 02:40:28;;;;;;;5.10;4.60;;;;;;;;;;5018173;28;20186;-78
2023/05/05 02:42:56;;;;;;;5.77;5.07;;;;;;;;;;5024431;28;20815;-78
2023/05/05 02:45:28;;;;;;;5.37;4.87;;;;;;;;;;5021663;28;20198;-78
2023/05/05 02:47:54;;;;;;;5.93;5.00;;;;;;;;;;5028622;28;20201;-78
2023/05/05 02:50:21;;;;;;;6.30;4.83;;;;;;;;;;5034036;28;20693;-78
2023/05/05 02:52:55;;;;;;;6.10;5.00;;;;;;;;;;5033529;28;20194;-77
2023/05/05 02:55:23;;;;;;;6.97;5.83;;;;;;;;;;5033742;28;20248;-78
2023/05/05 02:57:52;;;;;;;6.03;5.17;;;;;;;;;;5019815;28;20683;-78
2023/05/05 03:00:18;;;;;;;7.80;4.90;;;;;;;;;;5013764;28;20254;-78
2023/05/05 03:02:57;;;;;;;5.67;5.10;;;;;;;;;;5018659;28;20198;-78
2023/05/05 03:05:27;;;;;;;6.43;4.80;;;;;;;;;;5033050;28;20217;-78
2023/05/05 03:08:00;;;;;;;5.87;5.23;;;;;;;;;;5033227;28;20517;-78
2023/05/05 03:10:29;;;;;;;6.03;4.80;;;17.80;55.90;;;;;;5034009;28;20187;-78
2023/05/05 03:13:00;;;;;;;7.13;5.70;;;15.30;93.60;;;;;;5027400;28;20182;-77
2023/05/05 03:15:40;;;;;;;7.27;5.73;;;15.30;91.30;;;;;;5014673;28;20171;-78
2023/05/05 03:18:09;;;;;;;6.37;5.40;;;15.20;94.50;;;;;;5030148;28;20245;-78
2023/05/05 03:20:38;;;;;;;7.07;6.37;;;15.20;93.10;;;;;;5021692;28;20171;-78
2023/05/05 03:23:07;;;;;;;5.67;5.17;;;15.00;93.50;;;;;;5032793;28;20209;-77
2023/05/05 03:25:47;;;;;;;6.73;5.40;;;15.00;95.40;;;;;;5033421;28;20178;-78
2023/05/05 03:28:22;;;;;;;5.83;5.23;;;15.00;97.30;;;;;;5016370;28;20210;-78
2023/05/05 03:30:48;;;;;;;7.37;5.93;;;14.80;99.10;;;;;;5032052;28;20187;-78
2023/05/05 03:33:17;;;;;;;8.33;6.00;;;14.70;99.90;;;;;;5032429;28;20239;-79
2023/05/05 03:35:44;;;;;;;6.20;5.60;;;14.70;99.90;;;;;;5035358;28;20179;-77
2023/05/05 03:38:12;;;;;;;6.07;5.40;;;14.70;99.90;;;;;;5028248;28;20207;-78
2023/05/05 03:40:38;;;;;;;8.07;5.73;;;14.70;99.90;;;;;;5033229;28;20310;-79
2023/05/05 03:43:04;;;;;;;5.90;5.10;;;14.70;99.90;;;;;;5034072;28;20254;-78
2023/05/05 03:45:31;;;;;;;9.17;6.13;;;14.80;99.90;;;;;;5032866;28;20206;-78
2023/05/05 03:47:57;;;;;;;6.33;5.73;;;14.80;99.90;;;;;;5033732;28;20265;-77
2023/05/05 03:50:23;;;;;;;6.37;5.57;;;14.80;99.90;;;;;;5033320;28;20637;-79
2023/05/05 03:52:50;;;;;;;7.20;5.93;;;14.80;99.90;;;;;;5032858;28;20225;-78
2023/05/05 03:55:16;;;;;;;7.27;6.07;;;14.90;99.90;;;;;;5033433;28;20199;-78
2023/05/05 03:57:41;;;;;;;6.60;6.00;;;14.90;99.90;;;;;;5028834;28;20212;-78
2023/05/05 04:00:10;;;;;;;6.67;6.00;;;15.00;99.90;;;;;;5029743;28;20274;-78
2023/05/05 04:02:40;;;;;;;6.60;5.93;;;15.00;99.70;;;;;;5014126;28;20167;-78
2023/05/05 04:05:07;;;;;;;6.97;6.07;;;14.90;99.90;;;;;;5019594;28;20290;-78
2023/05/05 04:07:33;;;;;;;6.47;5.87;;;14.80;99.90;;;;;;5032094;28;20269;-78
2023/05/05 04:09:59;;;;;;;9.07;6.27;;;14.90;99.90;;;;;;5033563;28;20666;-78
2023/05/05 04:12:25;;;;;;;6.43;5.70;;;14.90;99.90;;;;;;5032214;28;20175;-77
2023/05/05 04:14:51;;;;;;;7.40;6.17;;;14.90;99.90;;;;;;5032542;28;20646;-78
2023/05/05 04:17:17;;;;;;;6.43;5.80;;;14.90;99.90;;;;;;5032576;28;20198;-78
2023/05/05 04:19:43;;;;;;;6.40;5.80;;;15.00;99.90;;;;;;5030467;28;20650;-78
2023/05/05 04:22:09;;;;;;;7.20;5.90;;;15.00;99.80;;;;;;5017279;28;20205;-78
2023/05/05 04:24:35;;;;;;;6.20;5.60;;;14.90;99.90;;;;;;5013787;28;20199;-78
2023/05/05 04:27:01;;;;;;;6.67;6.00;;;14.80;99.90;;;;;;5012186;28;20298;-78
2023/05/05 04:29:28;;;;;;;7.33;6.37;;;14.80;99.90;;;;;;5012717;28;20825;-77
2023/05/05 04:31:55;;;;;;;10.57;6.50;;;14.90;99.90;;;;;;5012395;28;20690;-78
2023/05/05 04:34:21;;;;;;;7.87;7.00;;;14.90;99.90;;;;;;5024568;28;20178;-78
2023/05/05 04:36:47;;;;;;;6.93;6.07;;;14.90;99.90;;;;;;5031958;28;20248;-78
2023/05/05 04:39:13;;;;;;;7.27;6.57;;;15.00;99.90;;;;;;5013789;28;20187;-78
2023/05/05 04:41:39;;;;;;;8.13;7.27;;;14.90;99.90;;;;;;5019025;28;20683;-78
2023/05/05 04:44:06;;;;;;;8.20;6.27;;;14.80;99.90;;;;;;5011798;28;20207;-77
2023/05/05 04:46:33;;;;;;;6.93;6.23;;;14.70;99.90;;;;;;5016406;28;20217;-78
2023/05/05 04:48:59;;;;;;;6.40;5.80;;;14.60;99.90;;;;;;5012001;28;20553;-78
2023/05/05 04:51:26;;;;;;;6.53;5.90;;;14.60;99.90;;;;;;5012312;28;20559;-78
2023/05/05 04:53:52;;;;;;;7.37;6.37;;;14.60;99.90;;;;;;5018542;28;20602;-78
2023/05/05 04:56:18;;;;;;;6.53;5.80;;;14.60;99.90;;;;;;5012744;28;20190;-78
2023/05/05 04:58:43;;;;;;;7.03;6.33;;;14.70;99.90;;;;;;5012263;28;20183;-78
2023/05/05 05:01:09;;;;;;;9.53;6.70;;;14.70;99.90;;;;;;5012950;28;20187;-78
2023/05/05 05:03:35;;;;;;;8.73;6.57;;;14.70;99.90;;;;;;4994791;28;20211;-77
2023/05/05 05:06:01;;;;;;;9.60;7.63;;;14.80;99.90;;;;;;5031985;28;20175;-78
2023/05/05 05:08:27;;;;;;;7.63;6.70;;;14.80;99.90;;;;;;5032113;28;20186;-78
2023/05/05 05:10:52;;;;;;;7.80;6.43;;;14.90;99.90;;;;;;5031737;28;20521;-78
2023/05/05 05:13:18;;;;;;;7.20;6.33;;;15.00;99.90;;;;;;5032329;28;20548;-78
2023/05/05 05:15:44;;;;;;;6.87;6.10;;;15.10;99.90;;;;;;5032401;28;20179;-79
2023/05/05 05:18:10;;;;;;;6.33;5.73;;;15.20;99.90;;;;;;5026210;28;20236;-78
2023/05/05 05:20:37;;;;;;;9.53;6.63;;;15.40;99.90;;;;;;5011526;28;20191;-78
2023/05/05 05:23:03;;;;;;;8.13;7.00;;;15.50;99.90;;;;;;5014242;28;20193;-79
2023/05/05 05:25:31;;;;;;;8.93;7.87;;;15.60;99.90;;;;;;5029178;28;20579;-78
2023/05/05 05:27:57;;;;;;;8.07;7.00;;;15.80;99.90;;;;;;5029568;28;20214;-78
2023/05/05 05:30:23;;;;;;;10.17;6.70;;;15.80;99.90;;;;;;5031087;28;20232;-77
2023/05/05 05:32:49;;;;;;;11.00;6.63;;;15.90;99.90;;;;;;5030741;28;20181;-76
2023/05/05 05:35:15;;;;;;;7.70;6.23;;;16.00;99.90;;;;;;5029662;28;20182;-76
2023/05/05 05:37:41;;;;;;;6.93;6.23;;;16.10;99.90;;;;;;5025163;28;20202;-77
2023/05/05 05:40:08;;;;;;;6.80;6.10;;;16.20;99.90;;;;;;5024198;28;20269;-75
2023/05/05 05:42:34;;;;;;;8.80;6.60;;;16.30;99.90;;;;;;5010926;28;20187;-76
2023/05/05 05:45:00;;;;;;;7.87;6.77;;;16.40;99.90;;;;;;5010846;28;20283;-79
2023/05/05 05:47:27;;;;;;;9.90;6.80;;;16.50;99.90;;;;;;5011829;28;20206;-76
2023/05/05 05:49:54;;;;;;;8.67;6.60;;;16.60;99.90;;;;;;5027225;28;20538;-75
2023/05/05 05:52:20;;;;;;;7.07;6.00;;;16.70;99.90;;;;;;5022781;28;20197;-77
2023/05/05 05:54:45;;;;;;;8.07;7.10;;;16.80;99.90;;;;;;5022850;28;20199;-75
2023/05/05 05:57:11;;;;;;;11.37;7.40;;;16.90;99.90;;;;;;5030184;28;20203;-77
2023/05/05 05:59:37;;;;;;;9.10;6.67;;;16.90;99.90;;;;;;5030134;28;20595;-76
2023/05/05 06:02:03;;;;;;;8.97;7.20;;;17.00;99.90;;;;;;5025627;28;20236;-74
2023/05/05 06:04:31;;;;;;;8.13;7.10;;;17.00;99.10;;;;;;5023120;28;20203;-75
2023/05/05 06:06:57;;;;;;;7.20;6.50;;;17.10;98.80;;;;;;5017968;28;20206;-76
2023/05/05 06:09:24;;;;;;;7.63;6.50;;;17.20;98.40;;;;;;5029972;28;20221;-75
2023/05/05 06:11:50;;;;;;;7.40;6.57;;;17.30;97.50;;;;;;5020430;28;20554;-75
2023/05/05 06:14:16;;;;;;;8.53;6.27;;;17.40;97.00;;;;;;5016688;28;20191;-75
2023/05/05 06:16:43;;;;;;;8.67;6.37;;;17.50;97.60;;;;;;5025552;28;20198;-75
2023/05/05 06:19:12;;;;;;;8.57;7.03;;;17.60;96.50;;;;;;5027049;28;20730;-75
2023/05/05 06:21:37;;;;;;;7.07;6.07;;;17.80;95.60;;;;;;5026043;28;20216;-75
2023/05/05 06:24:04;;;;;;;8.97;6.67;;;18.00;95.20;;;;;;5027099;28;20686;-75
2023/05/05 06:26:30;;;;;;;8.23;6.53;;;18.20;94.30;;;;;;5028323;28;20174;-75
2023/05/05 06:28:56;;;;;;;8.63;7.03;;;18.30;93.60;;;;;;5028507;28;20201;-75
2023/05/05 06:31:22;;;;;;;7.50;6.57;;;18.30;93.40;;;;;;5029433;28;20209;-75
2023/05/05 06:33:48;;;;;;;7.83;6.73;;;18.40;93.20;;;;;;5028165;28;20178;-74
2023/05/05 06:36:13;;;;;;;8.60;6.80;;;18.50;93.70;;;;;;5026224;28;20192;-73
2023/05/05 06:38:39;;;;;;;7.97;6.17;;;18.50;94.50;;;;;;5029257;28;20643;-73
2023/05/05 06:41:05;;;;;;;7.00;6.40;;;18.70;94.70;;;;;;5032213;28;20185;-78
2023/05/05 06:43:31;;;;;;;8.57;6.47;;;18.80;94.00;;;;;;5018985;28;20183;-79
2023/05/05 06:46:00;;;;;;;7.70;6.53;;;18.90;92.90;;;;;;5025186;28;20586;-79
2023/05/05 06:48:25;;;;;;;6.30;5.70;;;19.00;93.00;;;;;;5024640;28;20688;-75
2023/05/05 06:50:51;;;;;;;7.13;6.43;;;19.10;92.80;;;;;;5022328;28;20212;-77
2023/05/05 06:53:17;;;;;;;8.00;6.23;;;19.20;92.00;;;;;;5024814;28;20227;-76
2023/05/05 06:55:45;;;;;;;8.10;6.00;;;19.30;92.30;;;;;;5027135;28;20198;-77
2023/05/05 06:58:11;;;;;;;8.83;6.57;;;19.30;91.90;;;;;;5010105;28;20240;-77
2023/05/05 07:00:38;;;;;;;7.20;6.50;;;19.30;92.60;;;;;;5016930;28;20207;-77
2023/05/05 07:03:04;;;;;;;7.40;6.70;;;19.30;93.00;;;;;;5022339;28;20182;-78
2023/05/05 07:05:29;;;;;;;7.30;6.60;;;19.30;93.70;;;;;;5022577;28;20317;-77
2023/05/05 07:07:56;;;;;;;7.20;6.50;;;19.20;94.60;;;;;;5015442;28;20199;-78
2023/05/05 07:10:22;;;;;;;6.80;6.10;;;19.20;94.50;;;;;;5026546;28;20221;-77
2023/05/05 07:12:49;;;;;;;6.77;5.93;;;19.20;94.60;;;;;;5030120;28;20630;-78
2023/05/05 07:15:15;;;;;;;6.33;5.60;;;19.20;94.00;;;;;;5029751;28;20187;-78
2023/05/05 07:17:41;;;;;;;6.67;5.97;;;19.20;93.80;;;;;;5023363;28;20252;-77
2023/05/05 07:20:07;;;;;;;6.97;5.83;;;19.20;93.40;;;;;;5017046;28;20737;-77
2023/05/05 07:22:33;;;;;;;8.30;6.53;;;19.20;94.30;;;;;;5018259;28;20222;-78
2023/05/05 07:24:59;;;;;;;7.33;6.07;;;19.20;95.00;;;;;;5025499;28;20252;-78
2023/05/05 07:27:25;;;;;;;7.93;7.07;;;19.30;95.60;;;;;;5026694;28;20298;-77
2023/05/05 07:29:51;;;;;;;8.50;6.73;;;19.40;94.60;;;;;;5023909;28;20176;-77
2023/05/05 07:32:16;;;;;;;7.43;6.73;;;19.40;94.80;;;;;;5026942;28;20258;-77
2023/05/05 07:34:42;;;;;;;7.33;6.50;;;19.50;93.10;;;;;;5018750;28;20222;-77
2023/05/05 07:37:08;;;;;;;7.10;6.40;;;19.60;92.40;;;;;;5028277;28;20203;-77
2023/05/05 07:39:34;;;;;;;6.50;5.90;;;19.70;92.00;;;;;;5032220;28;20682;-77
2023/05/05 07:42:00;;;;;;;8.23;6.33;;;19.80;92.00;;;;;;5030635;28;20214;-77
2023/05/05 07:44:26;;;;;;;6.90;6.20;;;19.90;91.80;;;;;;5032308;28;20273;-77
2023/05/05 07:46:52;;;;;;;7.13;5.93;;;20.00;91.40;;;;;;5032721;28;20762;-77
2023/05/05 07:49:18;;;;;;;9.97;5.60;;;20.00;88.70;;;;;;5034330;28;20179;-77
2023/05/05 07:51:44;;;;;;;6.27;5.67;;;20.10;87.50;;;;;;5022371;28;20230;-76
2023/05/05 07:54:11;;;;;;;7.27;6.43;;;20.10;87.80;;;;;;5013820;28;20179;-76
2023/05/05 07:56:36;;;;;;;6.90;5.90;;;20.20;87.90;;;;;;5022711;28;20206;-77
2023/05/05 07:59:02;;;;;;;6.60;5.47;;;20.30;87.20;;;;;;5018562;28;20187;-76
2023/05/05 08:01:28;;;;;;;6.77;5.30;;;20.40;85.10;;;;;;5037443;28;20209;-76
2023/05/05 08:03:53;;;;;;;7.40;5.90;;;20.60;85.90;;;;;;5053020;28;20212;-76
2023/05/05 08:06:20;;;;;;;6.37;5.47;;;20.60;84.20;;;;;;5053154;28;20170;-76
2023/05/05 08:08:55;;;;;;;5.90;5.30;;;20.50;82.70;;;;;;5040910;28;20178;-77
2023/05/05 08:11:21;;;;;;;9.00;6.37;;;20.60;84.20;;;;;;5033550;28;20206;-76
2023/05/05 08:13:47;;;;;;;5.87;5.27;;;20.50;84.70;;;;;;5053618;28;20593;-76
2023/05/05 08:16:13;;;;;;;6.23;5.17;;;20.50;86.00;;;;;;5044620;28;20198;-76
2023/05/05 08:18:39;;;;;;;6.20;4.87;;;20.50;87.20;;;;;;5030853;28;20582;-76
2023/05/05 08:21:06;;;;;;;5.67;4.87;;;20.50;86.60;;;;;;5033658;28;20260;-77
2023/05/05 08:23:33;;;;;;;6.37;5.70;;;20.60;86.30;;;;;;5016725;28;20191;-77
2023/05/05 08:26:00;;;;;;;6.37;5.77;;;20.60;87.10;;;;;;5020590;28;20177;-76
2023/05/05 08:28:25;;;;;;;10.97;6.10;;;20.60;88.50;;;;;;5054526;28;20239;-76
2023/05/05 08:30:51;;;;;;;8.27;5.50;;;20.60;89.80;;;;;;5052287;28;20728;-76
2023/05/05 08:33:17;;;;;;;5.87;5.27;;;20.70;88.70;;;;;;5053491;28;20210;-76
2023/05/05 08:35:43;;;;;;;4.40;4.00;;;20.70;83.20;;;;;;5052350;28;20672;-77
2023/05/05 08:38:10;;;;;;;6.80;4.77;;;20.70;84.00;;;;;;5023358;28;20644;-76
2023/05/05 08:40:38;;;;;;;5.43;4.83;;;20.70;83.80;;;;;;5035807;28;20195;-77
2023/05/05 08:43:04;;;;;;;6.60;4.50;;;20.80;84.70;;;;;;5036963;28;20194;-77
2023/05/05 08:45:31;;;;;;;4.43;4.03;;;20.90;83.70;;;;;;5052400;28;20237;-76
2023/05/05 08:48:04;;;;;;;6.07;5.00;;;21.00;82.30;;;;;;5032412;28;20205;-76
2023/05/05 08:50:31;;;;;;;6.23;5.07;;;21.00;80.40;;;;;;5033628;28;20194;-76
2023/05/05 08:53:16;;;;;;;4.53;4.13;;;21.10;80.30;;;;;;5031766;28;20745;-77
2023/05/05 08:55:50;;;;;;;5.87;4.53;;;21.10;81.90;;;;;;5033003;28;20232;-76
2023/05/05 08:58:18;;;;;;;5.80;4.47;;;21.20;79.70;;;;;;5009387;28;20211;-77
2023/05/05 09:00:44;;;;;;;5.00;4.50;;;21.20;79.50;;;;;;5015374;28;20178;-76
2023/05/05 09:03:11;;;;;;;5.73;4.70;;;21.30;79.50;;;;;;5013165;28;20174;-77
2023/05/05 09:05:38;;;;;;;4.80;4.40;;;21.40;78.90;;;;;;5012633;28;20227;-76
2023/05/05 09:08:07;;;;;;;7.40;4.20;;;21.50;78.30;;;;;;5032057;28;20199;-77
2023/05/05 09:10:34;;;;;;;5.37;4.17;;;21.60;77.20;;;;;;5033020;28;20209;-76
2023/05/05 09:12:59;;;;;;;4.93;3.93;;;21.70;76.30;;;;;;5032365;28;20254;-76
2023/05/05 09:15:27;;;;;;;4.87;3.60;;;21.80;74.30;;;;;;5029667;28;20641;-76
2023/05/05 09:17:56;;;;;;;4.80;3.93;;;21.80;72.30;;;;;;5034379;28;20237;-76
2023/05/05 09:20:23;;;;;;;5.53;3.77;;;21.90;72.30;;;;;;5030475;28;20278;-76
2023/05/05 09:22:49;;;;;;;4.87;4.33;;;21.90;72.80;;;;;;5016408;28;20209;-76
2023/05/05 09:25:16;;;;;;;5.43;3.70;;;22.00;73.80;;;;;;5032092;28;20211;-76
2023/05/05 09:27:47;;;;;;;4.33;3.60;;;22.10;72.50;;;;;;5031134;28;20202;-76
2023/05/05 09:30:16;;;;;;;3.80;3.50;;;22.20;70.50;;;;;;5026985;28;20589;-76
2023/05/05 09:32:48;;;;;;;3.30;3.00;;;22.20;69.10;;;;;;5025667;28;20178;-76
2023/05/05 09:35:15;;;;;;;5.47;3.00;;;22.20;67.10;;;;;;5025266;28;20281;-76
2023/05/05 09:37:41;;;;;;;5.67;2.83;;;22.30;67.50;;;;;;5012731;28;20224;-77
2023/05/05 09:40:08;;;;;;;4.83;2.50;;;22.40;67.40;;;;;;5011058;28;20269;-77
2023/05/05 09:42:38;;;;;;;3.47;2.20;;;22.50;65.80;;;;;;5037399;28;20189;-77
2023/05/05 09:45:16;;;;;;;3.07;2.40;;;22.60;63.80;;;;;;5018889;28;20214;-77
2023/05/05 09:47:42;;;;;;;3.80;2.30;;;22.70;62.50;;;;;;5024568;28;20202;-77
2023/05/05 09:50:10;;;;;;;4.27;2.53;;;22.80;61.50;;;;;;5028588;28;20191;-76
2023/05/05 09:52:36;;;;;;;4.50;2.67;;;22.90;62.30;;;;;;5011839;28;20175;-77
2023/05/05 09:55:02;;;;;;;5.07;2.40;;;23.10;60.90;;;;;;5023182;28;20202;-77
2023/05/05 09:57:30;;;;;;;3.90;2.70;;;23.20;60.80;;;;;;5038695;28;20248;-77
2023/05/05 09:59:58;;;;;;;4.20;2.20;;;23.30;59.50;;;;;;5049486;28;20213;-77
2023/05/05 10:02:35;;;;;;;3.93;2.50;;;23.40;59.20;;;;;;5021703;28;20174;-76
2023/05/05 10:05:12;;;;;;;5.30;2.27;;;23.50;58.80;;;;;;5027865;28;20206;-77
2023/05/05 10:07:40;;;;;;;3.90;2.40;;;23.50;58.60;;;;;;5019908;28;20242;-77
2023/05/05 10:10:07;;;;;;;4.40;2.30;;;23.50;59.00;;;;;;5032185;28;20245;-77
2023/05/05 10:12:35;;;;;;;2.97;2.27;;;23.60;58.60;;;;;;5031107;28;20189;-77
2023/05/05 10:15:06;;;;;;;3.90;2.47;;;23.70;58.10;;;;;;5022121;28;20190;-77
2023/05/05 10:17:35;;;;;;;4.43;2.50;;;23.90;57.80;;;;;;5026701;28;20199;-77
2023/05/05 10:20:02;;;;;;;9.10;2.20;;;24.20;57.40;;;;;;5011649;28;20176;-77
2023/05/05 10:22:33;;;;;;;3.40;2.20;;;24.40;56.40;;;;;;5014916;28;20579;-77
2023/05/05 10:25:14;;;;;;;4.10;2.60;;;24.70;55.50;;;;;;5026247;28;20302;-78
2023/05/05 10:27:49;;;;;;;3.10;2.30;;;24.90;54.90;;;;;;5041840;28;20340;-77
2023/05/05 10:30:31;;;;;;;4.63;2.80;;;25.20;54.70;;;;;;5050571;28;20185;-76
2023/05/05 10:33:12;;;;;;;2.97;2.30;;;25.40;53.10;;;;;;5014405;28;20180;-77
2023/05/05 10:35:42;;;;;;;2.93;2.60;;;25.40;52.70;;;;;;5013065;28;20228;-77
2023/05/05 10:38:10;;;;;;;2.57;2.23;;;25.30;52.40;;;;;;5034765;28;20249;-78
2023/05/05 10:40:35;;;;;;;5.53;2.30;;;25.10;52.80;;;;;;5025496;28;20330;-77
2023/05/05 10:43:01;;;;;;;4.73;2.10;;;24.90;52.60;;;;;;5026854;28;20275;-76
2023/05/05 10:45:27;;;;;;;5.17;1.87;;;24.80;52.90;;;;;;5030366;28;20282;-77
2023/05/05 10:47:57;;;;;;;4.23;1.80;;;24.80;53.10;;;;;;5031188;28;20683;-76
2023/05/05 10:50:29;;;;;;;3.37;1.90;;;24.70;52.90;;;;;;5029306;28;20270;-78
2023/05/05 10:53:01;;;;;;;2.50;1.97;;;24.60;52.30;;;;;;5025975;28;20186;-77
2023/05/05 10:55:45;;;;;;;3.00;1.77;;;24.40;52.20;;;;;;5013858;28;20861;-78
2023/05/05 10:58:30;;;;;;;3.13;1.90;;;24.30;52.80;;;;;;5015770;28;20203;-75
2023/05/05 11:00:56;;;;;;;3.10;1.80;;;24.10;52.70;;;;;;5029936;28;20207;-76
2023/05/05 11:03:22;;;;;;;3.33;1.80;;;24.10;52.90;;;;;;5026782;28;20226;-75
2023/05/05 11:06:03;;;;;;;3.83;1.90;;;24.10;53.30;;;;;;5029986;28;20287;-75
2023/05/05 11:08:31;;;;;;;2.83;2.00;;;24.30;52.40;;;;;;5033604;28;20312;-75
2023/05/05 11:10:57;;;;;;;4.80;1.90;;;24.30;52.10;;;;;;5029671;28;20206;-75
2023/05/05 11:13:23;;;;;;;1.93;1.70;;;24.30;52.90;;;;;;5013612;28;20666;-75
2023/05/05 11:15:51;;;;;;;4.50;1.60;;;24.30;53.10;;;;;;5029466;28;20188;-76
2023/05/05 11:18:36;;;;;;;3.13;2.17;;;24.40;53.40;;;;;;5034375;28;20683;-76
2023/05/05 11:21:07;;;;;;;3.23;2.30;;;24.60;52.80;;;;;;5033907;28;20707;-75
2023/05/05 11:23:34;;;;;;;2.63;2.00;;;24.50;52.70;;;;;;5016617;28;20219;-75
2023/05/05 11:26:00;;;;;;;2.93;2.00;;;24.50;53.20;;;;;;5019150;28;20188;-75
2023/05/05 11:28:29;;;;;;;4.53;2.13;;;24.50;53.50;;;;;;5042872;28;20197;-75
2023/05/05 11:30:55;;;;;;;3.13;1.80;;;24.50;54.30;;;;;;5037531;28;20219;-75
2023/05/05 11:33:31;;;;;;;2.43;2.07;;;24.60;54.00;;;;;;5045656;28;20179;-75
2023/05/05 11:36:05;;;;;;;2.40;2.00;;;24.50;53.80;;;;;;5025154;28;20188;-75
2023/05/05 11:39:11;;;;;;;5.13;2.27;;;24.60;54.30;;;;;;5034305;28;20220;-75
2023/05/05 11:41:59;;;;;;;3.97;2.10;;;24.70;53.30;;;;;;5025942;28;20608;-75
2023/05/05 11:44:34;;;;;;;2.20;1.90;;;24.90;52.10;;;;;;5017449;28;20247;-75
2023/05/05 11:47:03;;;;;;;2.87;1.80;;;25.10;52.00;;;;;;5025833;28;20284;-76
2023/05/05 11:49:34;;;;;;;2.67;1.83;;;25.30;52.40;;;;;;5002620;28;20192;-78
2023/05/05 11:52:02;;;;;;;3.87;1.87;;;25.70;52.00;;;;;;5024749;28;20179;-76
2023/05/05 11:54:28;;;;;;;3.47;1.93;;;25.90;52.10;;;;;;5029079;28;20289;-77
2023/05/05 11:57:07;;;;;;;4.63;1.70;;;25.90;51.60;;;;;;5027029;28;20211;-77
2023/05/05 11:59:36;;;;;;;5.70;1.63;;;25.80;51.60;;;;;;5029479;28;20186;-76
2023/05/05 12:02:02;;;;;;;3.70;1.80;;;25.50;51.50;;;;;;5031805;28;20174;-76
2023/05/05 12:04:30;;;;;;;3.73;1.57;;;25.40;51.80;;;;;;5030242;28;20710;-76
2023/05/05 12:06:57;;;;;;;2.07;1.87;;;25.50;51.50;;;;;;5032426;28;20281;-76
2023/05/05 12:09:23;;;;;;;2.63;1.90;;;25.60;51.20;;;;;;5034192;28;20181;-77
2023/05/05 12:11:56;;;;;;;2.30;2.10;;;25.70;51.70;;;;;;5033626;28;20218;-76
2023/05/05 12:14:23;;;;;;;3.67;2.10;;;25.80;51.80;;;;;;5031631;28;20264;-76
2023/05/05 12:17:03;;;;;;;2.43;1.60;;;25.80;51.60;;;;;;5032098;28;20719;-76
2023/05/05 12:19:29;;;;;;;2.20;1.80;;;26.40;51.80;;;;;;5031250;28;20194;-76
2023/05/05 12:21:55;;;;;;;5.20;1.80;;;27.40;50.50;;;;;;5030965;28;20661;-76
2023/05/05 12:24:21;;;;;;;2.83;1.73;;;28.40;49.40;;;;;;5031633;28;20682;-77
2023/05/05 12:26:47;;;;;;;2.20;1.60;;;29.40;48.50;;;;;;5029090;28;20580;-78
2023/05/05 12:29:23;;;;;;;2.23;1.67;;;30.20;47.20;;;;;;5032442;28;20272;-77
2023/05/05 12:31:49;;;;;;;1.80;1.63;;;31.10;45.70;;;;;;5033114;28;20196;-77
2023/05/05 12:34:14;;;;;;;2.60;1.57;;;31.60;43.70;;;;;;5028840;28;20192;-77
2023/05/05 12:36:41;;;;;;;3.67;2.07;;;31.80;43.80;;;;;;5031078;28;20195;-77
2023/05/05 12:39:07;;;;;;;2.80;1.70;;;31.30;44.00;;;;;;5028922;28;20175;-77
2023/05/05 12:41:33;;;;;;;2.23;2.00;;;30.30;44.70;;;;;;5033213;28;20189;-77
2023/05/05 12:44:02;;;;;;;2.27;1.87;;;29.60;46.00;;;;;;5032312;28;20207;-77
2023/05/05 12:46:29;;;;;;;3.60;1.93;;;28.90;46.30;;;;;;5022837;28;20237;-77
2023/05/05 12:49:04;;;;;;;2.07;1.87;;;28.60;47.40;;;;;;5021397;28;20179;-77
2023/05/05 12:51:31;;;;;;;1.63;1.53;;;28.40;47.70;;;;;;5025943;28;20185;-78
2023/05/05 12:54:11;;;;;;;1.80;1.70;;;28.10;48.60;;;;;;5043263;28;20175;-77
2023/05/05 12:56:39;;;;;;;2.23;1.60;;;28.00;47.80;;;;;;5021744;28;20217;-77
2023/05/05 12:59:07;;;;;;;6.43;2.10;;;28.00;48.20;;;;;;5011310;28;20172;-77
2023/05/05 13:01:34;;;;;;;1.63;1.53;;;27.90;48.40;;;;;;5016456;28;20665;-78
2023/05/05 13:04:11;;;;;;;2.67;1.70;;;27.70;48.00;;;;;;5031313;28;20226;-77
2023/05/05 13:06:38;;;;;;;2.27;1.80;;;27.50;48.30;;;;;;5030546;28;20285;-77
2023/05/05 13:09:05;;;;;;;1.87;1.77;;;27.50;48.80;;;;;;5037973;28;20656;-77
2023/05/05 13:11:37;;;;;;;2.20;1.90;;;27.40;48.60;;;;;;5036545;28;20190;-77
2023/05/05 13:14:05;;;;;;;4.03;1.87;;;27.30;48.50;;;;;;5029502;28;20175;-77
2023/05/05 13:16:31;;;;;;;2.07;1.63;;;27.30;48.50;;;;;;5035792;28;20187;-77